sensor_id;sensor_type;location;lat;lon;timestamp;P1;durP1;ratioP1;P2;durP2;ratioP2
33206;SDS011;19565;46.602;11.534;2023-08-01T00:00:07;3.55;;;2.33;;
33206;SDS011;19565;46.602;11.534;2023-08-01T00:02:36;2.33;;;2.13;;
33206;SDS011;19565;46.602;11.534;2023-08-01T00:05:04;4.82;;;2.10;;
33206;SDS011;19565;46.602;11.534;2023-08-01T00:07:33;3.65;;;1.90;;
33206;SDS011;19565;46.602;11.534;2023-08-01T00:10:03;4.38;;;3.20;;
33206;SDS011;19565;46.602;11.534;2023-08-01T00:12:32;3.28;;;1.75;;
33206;SDS011;19565;46.602;11.534;2023-08-01T00:15:03;2.30;;;1.52;;
33206;SDS011;19565;46.602;11.534;2023-08-01T00:17:32;5.75;;;3.92;;
33206;SDS011;19565;46.602;11.534;2023-08-01T00:20:01;3.75;;;2.63;;
33206;SDS011;19565;46.602;11.534;2023-08-01T00:22:30;4.72;;;2.58;;
33206;SDS011;19565;46.602;11.534;2023-08-01T00:24:58;1.25;;;1.15;;
33206;SDS011;19565;46.602;11.534;2023-08-01T00:27:26;5.20;;;2.28;;
33206;SDS011;19565;46.602;11.534;2023-08-01T00:30:07;4.10;;;3.00;;
33206;SDS011;19565;46.602;11.534;2023-08-01T00:32:36;3.03;;;1.73;;
33206;SDS011;19565;46.602;11.534;2023-08-01T00:35:04;3.47;;;2.13;;
33206;SDS011;19565;46.602;11.534;2023-08-01T00:37:33;5.63;;;2.65;;
33206;SDS011;19565;46.602;11.534;2023-08-01T00:40:01;2.10;;;1.83;;
33206;SDS011;19565;46.602;11.534;2023-08-01T00:42:29;4.78;;;2.35;;
33206;SDS011;19565;46.602;11.534;2023-08-01T00:44:57;4.05;;;1.63;;
33206;SDS011;19565;46.602;11.534;2023-08-01T00:47:28;3.08;;;2.63;;
33206;SDS011;19565;46.602;11.534;2023-08-01T00:49:56;2.08;;;1.85;;
33206;SDS011;19565;46.602;11.534;2023-08-01T00:52:25;1.98;;;1.77;;
33206;SDS011;19565;46.602;11.534;2023-08-01T00:54:53;3.13;;;1.92;;
33206;SDS011;19565;46.602;11.534;2023-08-01T00:57:22;2.15;;;1.88;;
33206;SDS011;19565;46.602;11.534;2023-08-01T00:59:50;2.30;;;1.55;;
33206;SDS011;19565;46.602;11.534;2023-08-01T01:02:18;4.10;;;2.30;;
33206;SDS011;19565;46.602;11.534;2023-08-01T01:04:48;4.68;;;2.58;;
33206;SDS011;19565;46.602;11.534;2023-08-01T01:07:16;2.25;;;1.42;;
33206;SDS011;19565;46.602;11.534;2023-08-01T01:09:44;3.35;;;2.42;;
33206;SDS011;19565;46.602;11.534;2023-08-01T01:12:12;3.13;;;2.85;;
33206;SDS011;19565;46.602;11.534;2023-08-01T01:14:41;5.43;;;2.85;;
33206;SDS011;19565;46.602;11.534;2023-08-01T01:17:09;2.00;;;1.80;;
33206;SDS011;19565;46.602;11.534;2023-08-01T01:19:37;3.03;;;2.55;;
33206;SDS011;19565;46.602;11.534;2023-08-01T01:22:06;3.00;;;2.22;;
33206;SDS011;19565;46.602;11.534;2023-08-01T01:24:36;3.47;;;2.65;;
33206;SDS011;19565;46.602;11.534;2023-08-01T01:27:07;3.08;;;1.63;;
33206;SDS011;19565;46.602;11.534;2023-08-01T01:29:36;3.20;;;2.75;;
33206;SDS011;19565;46.602;11.534;2023-08-01T01:32:05;1.98;;;1.83;;
33206;SDS011;19565;46.602;11.534;2023-08-01T01:34:34;2.30;;;1.85;;
33206;SDS011;19565;46.602;11.534;2023-08-01T01:37:02;3.78;;;1.77;;
33206;SDS011;19565;46.602;11.534;2023-08-01T01:39:32;3.92;;;2.65;;
33206;SDS011;19565;46.602;11.534;2023-08-01T01:42:01;2.05;;;1.85;;
33206;SDS011;19565;46.602;11.534;2023-08-01T01:44:29;2.25;;;1.35;;
33206;SDS011;19565;46.602;11.534;2023-08-01T01:46:57;2.25;;;1.88;;
33206;SDS011;19565;46.602;11.534;2023-08-01T01:49:25;5.63;;;2.35;;
33206;SDS011;19565;46.602;11.534;2023-08-01T01:51:53;1.90;;;1.60;;
33206;SDS011;19565;46.602;11.534;2023-08-01T01:54:24;2.10;;;1.90;;
33206;SDS011;19565;46.602;11.534;2023-08-01T01:56:53;5.22;;;2.80;;
33206;SDS011;19565;46.602;11.534;2023-08-01T01:59:21;2.67;;;2.05;;
33206;SDS011;19565;46.602;11.534;2023-08-01T02:01:49;2.20;;;1.92;;
33206;SDS011;19565;46.602;11.534;2023-08-01T02:04:17;2.65;;;2.25;;
33206;SDS011;19565;46.602;11.534;2023-08-01T02:06:45;2.90;;;1.98;;
33206;SDS011;19565;46.602;11.534;2023-08-01T02:09:14;2.78;;;2.00;;
33206;SDS011;19565;46.602;11.534;2023-08-01T02:11:42;3.50;;;2.47;;
33206;SDS011;19565;46.602;11.534;2023-08-01T02:14:11;2.80;;;2.10;;
33206;SDS011;19565;46.602;11.534;2023-08-01T02:16:40;11.75;;;6.10;;
33206;SDS011;19565;46.602;11.534;2023-08-01T02:19:08;3.17;;;2.47;;
33206;SDS011;19565;46.602;11.534;2023-08-01T02:21:36;4.07;;;2.60;;
33206;SDS011;19565;46.602;11.534;2023-08-01T02:24:04;6.40;;;3.13;;
33206;SDS011;19565;46.602;11.534;2023-08-01T02:26:32;4.03;;;2.45;;
33206;SDS011;19565;46.602;11.534;2023-08-01T02:29:00;4.40;;;2.33;;
33206;SDS011;19565;46.602;11.534;2023-08-01T02:31:30;5.60;;;2.28;;
33206;SDS011;19565;46.602;11.534;2023-08-01T02:33:58;6.25;;;3.10;;
33206;SDS011;19565;46.602;11.534;2023-08-01T02:36:26;5.25;;;2.67;;
33206;SDS011;19565;46.602;11.534;2023-08-01T02:38:54;2.63;;;2.38;;
33206;SDS011;19565;46.602;11.534;2023-08-01T02:41:22;3.90;;;1.88;;
33206;SDS011;19565;46.602;11.534;2023-08-01T02:43:50;2.03;;;1.83;;
33206;SDS011;19565;46.602;11.534;2023-08-01T02:46:18;3.05;;;2.50;;
33206;SDS011;19565;46.602;11.534;2023-08-01T02:48:48;2.50;;;1.98;;
33206;SDS011;19565;46.602;11.534;2023-08-01T02:51:15;2.30;;;1.98;;
33206;SDS011;19565;46.602;11.534;2023-08-01T02:53:43;3.60;;;2.08;;
33206;SDS011;19565;46.602;11.534;2023-08-01T02:56:11;4.78;;;2.00;;
33206;SDS011;19565;46.602;11.534;2023-08-01T02:58:39;3.17;;;2.50;;
33206;SDS011;19565;46.602;11.534;2023-08-01T03:01:08;3.42;;;2.53;;
33206;SDS011;19565;46.602;11.534;2023-08-01T03:03:37;3.17;;;2.88;;
33206;SDS011;19565;46.602;11.534;2023-08-01T03:06:06;2.90;;;2.38;;
33206;SDS011;19565;46.602;11.534;2023-08-01T03:08:35;3.90;;;2.85;;
33206;SDS011;19565;46.602;11.534;2023-08-01T03:11:03;3.25;;;2.65;;
33206;SDS011;19565;46.602;11.534;2023-08-01T03:13:31;3.13;;;2.65;;
33206;SDS011;19565;46.602;11.534;2023-08-01T03:15:59;4.28;;;2.38;;
33206;SDS011;19565;46.602;11.534;2023-08-01T03:18:27;3.70;;;2.78;;
33206;SDS011;19565;46.602;11.534;2023-08-01T03:20:55;5.07;;;2.53;;
33206;SDS011;19565;46.602;11.534;2023-08-01T03:23:25;5.35;;;1.92;;
33206;SDS011;19565;46.602;11.534;2023-08-01T03:25:53;5.00;;;2.17;;
33206;SDS011;19565;46.602;11.534;2023-08-01T03:28:21;2.90;;;2.33;;
33206;SDS011;19565;46.602;11.534;2023-08-01T03:30:49;5.43;;;2.40;;
33206;SDS011;19565;46.602;11.534;2023-08-01T03:33:19;3.85;;;3.40;;
33206;SDS011;19565;46.602;11.534;2023-08-01T03:35:47;13.07;;;2.78;;
33206;SDS011;19565;46.602;11.534;2023-08-01T03:38:15;3.45;;;2.10;;
33206;SDS011;19565;46.602;11.534;2023-08-01T03:40:45;1.52;;;1.42;;
33206;SDS011;19565;46.602;11.534;2023-08-01T03:43:13;6.60;;;1.73;;
33206;SDS011;19565;46.602;11.534;2023-08-01T03:45:41;3.13;;;2.83;;
33206;SDS011;19565;46.602;11.534;2023-08-01T03:48:10;3.42;;;2.53;;
33206;SDS011;19565;46.602;11.534;2023-08-01T03:50:37;3.30;;;2.38;;
33206;SDS011;19565;46.602;11.534;2023-08-01T03:53:06;1.55;;;1.42;;
33206;SDS011;19565;46.602;11.534;2023-08-01T03:55:34;5.28;;;3.45;;
33206;SDS011;19565;46.602;11.534;2023-08-01T03:58:04;2.28;;;2.05;;
33206;SDS011;19565;46.602;11.534;2023-08-01T04:00:32;3.78;;;1.92;;
33206;SDS011;19565;46.602;11.534;2023-08-01T04:03:00;10.00;;;2.25;;
33206;SDS011;19565;46.602;11.534;2023-08-01T04:05:29;6.75;;;2.92;;
33206;SDS011;19565;46.602;11.534;2023-08-01T04:07:57;2.55;;;2.08;;
33206;SDS011;19565;46.602;11.534;2023-08-01T04:10:25;3.42;;;2.20;;
33206;SDS011;19565;46.602;11.534;2023-08-01T04:12:53;12.18;;;3.00;;
33206;SDS011;19565;46.602;11.534;2023-08-01T04:15:22;3.25;;;2.30;;
33206;SDS011;19565;46.602;11.534;2023-08-01T04:17:50;4.22;;;2.15;;
33206;SDS011;19565;46.602;11.534;2023-08-01T04:20:18;4.70;;;2.50;;
33206;SDS011;19565;46.602;11.534;2023-08-01T04:22:46;5.50;;;2.70;;
33206;SDS011;19565;46.602;11.534;2023-08-01T04:25:15;4.13;;;3.45;;
33206;SDS011;19565;46.602;11.534;2023-08-01T04:27:43;2.45;;;2.22;;
33206;SDS011;19565;46.602;11.534;2023-08-01T04:30:11;4.22;;;2.55;;
33206;SDS011;19565;46.602;11.534;2023-08-01T04:32:40;4.55;;;2.00;;
33206;SDS011;19565;46.602;11.534;2023-08-01T04:35:08;4.40;;;2.40;;
33206;SDS011;19565;46.602;11.534;2023-08-01T04:37:36;3.55;;;2.45;;
33206;SDS011;19565;46.602;11.534;2023-08-01T04:40:05;3.22;;;2.42;;
33206;SDS011;19565;46.602;11.534;2023-08-01T04:42:34;2.78;;;2.10;;
33206;SDS011;19565;46.602;11.534;2023-08-01T04:45:02;5.38;;;2.42;;
33206;SDS011;19565;46.602;11.534;2023-08-01T04:47:32;4.60;;;1.98;;
33206;SDS011;19565;46.602;11.534;2023-08-01T04:50:03;3.53;;;2.97;;
33206;SDS011;19565;46.602;11.534;2023-08-01T04:52:31;2.97;;;2.35;;
33206;SDS011;19565;46.602;11.534;2023-08-01T04:54:59;3.05;;;2.78;;
33206;SDS011;19565;46.602;11.534;2023-08-01T04:57:28;2.72;;;2.47;;
33206;SDS011;19565;46.602;11.534;2023-08-01T04:59:55;4.18;;;3.70;;
33206;SDS011;19565;46.602;11.534;2023-08-01T05:02:25;2.97;;;1.92;;
33206;SDS011;19565;46.602;11.534;2023-08-01T05:04:53;4.00;;;2.20;;
33206;SDS011;19565;46.602;11.534;2023-08-01T05:07:23;3.83;;;1.80;;
33206;SDS011;19565;46.602;11.534;2023-08-01T05:09:51;4.20;;;2.85;;
33206;SDS011;19565;46.602;11.534;2023-08-01T05:12:19;3.72;;;2.92;;
33206;SDS011;19565;46.602;11.534;2023-08-01T05:14:47;3.47;;;2.83;;
33206;SDS011;19565;46.602;11.534;2023-08-01T05:17:15;3.55;;;2.83;;
33206;SDS011;19565;46.602;11.534;2023-08-01T05:19:43;3.30;;;2.75;;
33206;SDS011;19565;46.602;11.534;2023-08-01T05:22:11;8.95;;;2.92;;
33206;SDS011;19565;46.602;11.534;2023-08-01T05:24:41;2.20;;;1.80;;
33206;SDS011;19565;46.602;11.534;2023-08-01T05:27:09;2.65;;;2.17;;
33206;SDS011;19565;46.602;11.534;2023-08-01T05:29:37;2.50;;;2.25;;
33206;SDS011;19565;46.602;11.534;2023-08-01T05:32:05;2.97;;;1.90;;
33206;SDS011;19565;46.602;11.534;2023-08-01T05:34:34;2.28;;;1.35;;
33206;SDS011;19565;46.602;11.534;2023-08-01T05:37:02;3.15;;;2.00;;
33206;SDS011;19565;46.602;11.534;2023-08-01T05:39:30;3.90;;;2.40;;
33206;SDS011;19565;46.602;11.534;2023-08-01T05:41:59;2.60;;;2.03;;
33206;SDS011;19565;46.602;11.534;2023-08-01T05:44:27;2.40;;;1.98;;
33206;SDS011;19565;46.602;11.534;2023-08-01T05:46:55;7.60;;;2.10;;
33206;SDS011;19565;46.602;11.534;2023-08-01T05:49:23;3.15;;;2.47;;
33206;SDS011;19565;46.602;11.534;2023-08-01T05:51:51;4.07;;;2.47;;
33206;SDS011;19565;46.602;11.534;2023-08-01T05:54:19;4.20;;;2.65;;
33206;SDS011;19565;46.602;11.534;2023-08-01T05:56:47;2.95;;;2.67;;
33206;SDS011;19565;46.602;11.534;2023-08-01T05:59:17;5.68;;;3.65;;
33206;SDS011;19565;46.602;11.534;2023-08-01T06:01:45;2.47;;;2.25;;
33206;SDS011;19565;46.602;11.534;2023-08-01T06:04:14;3.42;;;2.45;;
33206;SDS011;19565;46.602;11.534;2023-08-01T06:06:42;4.45;;;3.05;;
33206;SDS011;19565;46.602;11.534;2023-08-01T06:09:10;4.30;;;2.63;;
33206;SDS011;19565;46.602;11.534;2023-08-01T06:11:38;4.60;;;2.78;;
33206;SDS011;19565;46.602;11.534;2023-08-01T06:14:06;2.80;;;2.13;;
33206;SDS011;19565;46.602;11.534;2023-08-01T06:16:35;4.22;;;2.90;;
33206;SDS011;19565;46.602;11.534;2023-08-01T06:19:04;3.78;;;2.42;;
33206;SDS011;19565;46.602;11.534;2023-08-01T06:21:32;2.15;;;1.80;;
33206;SDS011;19565;46.602;11.534;2023-08-01T06:24:00;4.32;;;2.63;;
33206;SDS011;19565;46.602;11.534;2023-08-01T06:26:28;5.03;;;2.70;;
33206;SDS011;19565;46.602;11.534;2023-08-01T06:28:57;4.70;;;2.20;;
33206;SDS011;19565;46.602;11.534;2023-08-01T06:31:25;3.17;;;2.38;;
33206;SDS011;19565;46.602;11.534;2023-08-01T06:33:54;3.78;;;2.90;;
33206;SDS011;19565;46.602;11.534;2023-08-01T06:36:22;3.22;;;2.83;;
33206;SDS011;19565;46.602;11.534;2023-08-01T06:38:50;3.90;;;3.17;;
33206;SDS011;19565;46.602;11.534;2023-08-01T06:41:18;4.18;;;2.95;;
33206;SDS011;19565;46.602;11.534;2023-08-01T06:43:46;4.47;;;3.22;;
33206;SDS011;19565;46.602;11.534;2023-08-01T06:46:14;3.70;;;3.28;;
33206;SDS011;19565;46.602;11.534;2023-08-01T06:48:42;5.70;;;3.08;;
33206;SDS011;19565;46.602;11.534;2023-08-01T06:51:12;1.80;;;1.70;;
33206;SDS011;19565;46.602;11.534;2023-08-01T06:53:40;3.65;;;2.55;;
33206;SDS011;19565;46.602;11.534;2023-08-01T06:56:08;4.47;;;3.50;;
33206;SDS011;19565;46.602;11.534;2023-08-01T06:58:36;5.40;;;3.55;;
33206;SDS011;19565;46.602;11.534;2023-08-01T07:01:04;5.05;;;4.55;;
33206;SDS011;19565;46.602;11.534;2023-08-01T07:03:32;3.13;;;2.72;;
33206;SDS011;19565;46.602;11.534;2023-08-01T07:06:00;3.72;;;3.33;;
33206;SDS011;19565;46.602;11.534;2023-08-01T07:08:32;4.28;;;2.95;;
33206;SDS011;19565;46.602;11.534;2023-08-01T07:11:00;5.30;;;3.30;;
33206;SDS011;19565;46.602;11.534;2023-08-01T07:13:28;2.95;;;2.67;;
33206;SDS011;19565;46.602;11.534;2023-08-01T07:15:57;10.45;;;3.05;;
33206;SDS011;19565;46.602;11.534;2023-08-01T07:18:25;4.38;;;2.75;;
33206;SDS011;19565;46.602;11.534;2023-08-01T07:21:02;4.32;;;3.40;;
33206;SDS011;19565;46.602;11.534;2023-08-01T07:23:33;4.43;;;3.83;;
33206;SDS011;19565;46.602;11.534;2023-08-01T07:26:02;3.55;;;2.88;;
33206;SDS011;19565;46.602;11.534;2023-08-01T07:28:30;6.40;;;2.72;;
33206;SDS011;19565;46.602;11.534;2023-08-01T07:30:58;4.18;;;2.88;;
33206;SDS011;19565;46.602;11.534;2023-08-01T07:33:27;4.97;;;3.00;;
33206;SDS011;19565;46.602;11.534;2023-08-01T07:35:55;4.93;;;3.85;;
33206;SDS011;19565;46.602;11.534;2023-08-01T07:38:23;4.00;;;3.45;;
33206;SDS011;19565;46.602;11.534;2023-08-01T07:40:54;4.05;;;3.53;;
33206;SDS011;19565;46.602;11.534;2023-08-01T07:43:23;9.15;;;3.15;;
33206;SDS011;19565;46.602;11.534;2023-08-01T07:45:55;2.00;;;1.75;;
33206;SDS011;19565;46.602;11.534;2023-08-01T07:48:23;3.53;;;2.92;;
33206;SDS011;19565;46.602;11.534;2023-08-01T07:50:51;4.72;;;3.30;;
33206;SDS011;19565;46.602;11.534;2023-08-01T07:53:19;3.17;;;2.80;;
33206;SDS011;19565;46.602;11.534;2023-08-01T07:55:47;2.85;;;2.38;;
33206;SDS011;19565;46.602;11.534;2023-08-01T07:58:17;3.67;;;2.40;;
33206;SDS011;19565;46.602;11.534;2023-08-01T08:00:45;4.68;;;3.95;;
33206;SDS011;19565;46.602;11.534;2023-08-01T08:03:13;5.10;;;4.20;;
33206;SDS011;19565;46.602;11.534;2023-08-01T08:05:41;4.53;;;3.42;;
33206;SDS011;19565;46.602;11.534;2023-08-01T08:08:09;2.53;;;2.30;;
33206;SDS011;19565;46.602;11.534;2023-08-01T08:10:37;4.07;;;3.20;;
33206;SDS011;19565;46.602;11.534;2023-08-01T08:13:09;2.85;;;2.63;;
33206;SDS011;19565;46.602;11.534;2023-08-01T08:15:38;9.18;;;3.92;;
33206;SDS011;19565;46.602;11.534;2023-08-01T08:18:06;3.88;;;3.40;;
33206;SDS011;19565;46.602;11.534;2023-08-01T08:20:40;6.30;;;3.63;;
33206;SDS011;19565;46.602;11.534;2023-08-01T08:23:09;4.45;;;3.35;;
33206;SDS011;19565;46.602;11.534;2023-08-01T08:25:39;4.82;;;3.03;;
33206;SDS011;19565;46.602;11.534;2023-08-01T08:28:07;2.72;;;2.47;;
33206;SDS011;19565;46.602;11.534;2023-08-01T08:30:35;4.35;;;3.58;;
33206;SDS011;19565;46.602;11.534;2023-08-01T08:33:05;4.90;;;3.72;;
33206;SDS011;19565;46.602;11.534;2023-08-01T08:35:34;4.28;;;3.13;;
33206;SDS011;19565;46.602;11.534;2023-08-01T08:38:03;4.57;;;3.35;;
33206;SDS011;19565;46.602;11.534;2023-08-01T08:40:31;5.57;;;3.53;;
33206;SDS011;19565;46.602;11.534;2023-08-01T08:43:01;4.25;;;3.58;;
33206;SDS011;19565;46.602;11.534;2023-08-01T08:45:31;5.05;;;4.03;;
33206;SDS011;19565;46.602;11.534;2023-08-01T08:48:04;6.50;;;3.58;;
33206;SDS011;19565;46.602;11.534;2023-08-01T08:50:37;3.88;;;3.35;;
33206;SDS011;19565;46.602;11.534;2023-08-01T08:53:06;3.65;;;3.22;;
33206;SDS011;19565;46.602;11.534;2023-08-01T08:55:39;4.03;;;3.40;;
33206;SDS011;19565;46.602;11.534;2023-08-01T08:58:08;4.90;;;3.97;;
33206;SDS011;19565;46.602;11.534;2023-08-01T09:00:36;4.18;;;3.50;;
33206;SDS011;19565;46.602;11.534;2023-08-01T09:03:04;3.97;;;3.35;;
33206;SDS011;19565;46.602;11.534;2023-08-01T09:05:35;3.70;;;3.15;;
33206;SDS011;19565;46.602;11.534;2023-08-01T09:08:13;4.32;;;3.92;;
33206;SDS011;19565;46.602;11.534;2023-08-01T09:10:45;4.15;;;3.75;;
33206;SDS011;19565;46.602;11.534;2023-08-01T09:13:14;4.95;;;3.83;;
33206;SDS011;19565;46.602;11.534;2023-08-01T09:15:42;5.68;;;3.95;;
33206;SDS011;19565;46.602;11.534;2023-08-01T09:18:11;4.35;;;3.22;;
33206;SDS011;19565;46.602;11.534;2023-08-01T09:20:45;4.88;;;3.90;;
33206;SDS011;19565;46.602;11.534;2023-08-01T09:23:14;4.50;;;4.03;;
33206;SDS011;19565;46.602;11.534;2023-08-01T09:25:43;2.80;;;2.60;;
33206;SDS011;19565;46.602;11.534;2023-08-01T09:28:18;4.70;;;4.13;;
33206;SDS011;19565;46.602;11.534;2023-08-01T09:30:48;5.05;;;4.07;;
33206;SDS011;19565;46.602;11.534;2023-08-01T09:33:17;4.20;;;3.78;;
33206;SDS011;19565;46.602;11.534;2023-08-01T09:35:48;5.18;;;4.28;;
33206;SDS011;19565;46.602;11.534;2023-08-01T09:38:18;4.90;;;4.43;;
33206;SDS011;19565;46.602;11.534;2023-08-01T09:40:46;4.95;;;4.53;;
33206;SDS011;19565;46.602;11.534;2023-08-01T09:43:16;6.50;;;5.88;;
33206;SDS011;19565;46.602;11.534;2023-08-01T09:45:51;5.97;;;4.13;;
33206;SDS011;19565;46.602;11.534;2023-08-01T09:48:23;5.22;;;4.82;;
33206;SDS011;19565;46.602;11.534;2023-08-01T09:51:04;5.90;;;5.45;;
33206;SDS011;19565;46.602;11.534;2023-08-01T09:53:33;5.90;;;5.45;;
33206;SDS011;19565;46.602;11.534;2023-08-01T09:56:02;6.57;;;6.03;;
33206;SDS011;19565;46.602;11.534;2023-08-01T09:58:31;6.05;;;5.50;;
33206;SDS011;19565;46.602;11.534;2023-08-01T10:01:01;6.10;;;5.70;;
33206;SDS011;19565;46.602;11.534;2023-08-01T10:03:29;7.32;;;6.63;;
33206;SDS011;19565;46.602;11.534;2023-08-01T10:05:58;5.82;;;5.43;;
33206;SDS011;19565;46.602;11.534;2023-08-01T10:08:29;6.90;;;6.30;;
33206;SDS011;19565;46.602;11.534;2023-08-01T10:10:58;6.68;;;6.25;;
33206;SDS011;19565;46.602;11.534;2023-08-01T10:13:31;9.82;;;6.63;;
33206;SDS011;19565;46.602;11.534;2023-08-01T10:16:00;8.27;;;7.57;;
33206;SDS011;19565;46.602;11.534;2023-08-01T10:18:29;7.25;;;6.68;;
33206;SDS011;19565;46.602;11.534;2023-08-01T10:20:57;6.43;;;5.93;;
33206;SDS011;19565;46.602;11.534;2023-08-01T10:23:26;5.85;;;5.40;;
33206;SDS011;19565;46.602;11.534;2023-08-01T10:25:56;6.07;;;5.53;;
33206;SDS011;19565;46.602;11.534;2023-08-01T10:28:33;6.30;;;5.45;;
33206;SDS011;19565;46.602;11.534;2023-08-01T10:31:09;5.28;;;4.88;;
33206;SDS011;19565;46.602;11.534;2023-08-01T10:33:38;4.88;;;4.53;;
33206;SDS011;19565;46.602;11.534;2023-08-01T10:36:13;5.13;;;4.72;;
33206;SDS011;19565;46.602;11.534;2023-08-01T10:38:50;4.15;;;3.85;;
33206;SDS011;19565;46.602;11.534;2023-08-01T10:41:20;4.95;;;4.55;;
33206;SDS011;19565;46.602;11.534;2023-08-01T10:43:49;4.13;;;3.72;;
33206;SDS011;19565;46.602;11.534;2023-08-01T10:46:17;5.00;;;4.55;;
33206;SDS011;19565;46.602;11.534;2023-08-01T10:48:49;4.38;;;3.97;;
33206;SDS011;19565;46.602;11.534;2023-08-01T10:51:17;4.65;;;4.25;;
33206;SDS011;19565;46.602;11.534;2023-08-01T10:53:46;4.30;;;3.92;;
33206;SDS011;19565;46.602;11.534;2023-08-01T10:56:19;4.40;;;3.95;;
33206;SDS011;19565;46.602;11.534;2023-08-01T10:58:47;5.07;;;3.78;;
33206;SDS011;19565;46.602;11.534;2023-08-01T11:01:15;3.85;;;3.55;;
33206;SDS011;19565;46.602;11.534;2023-08-01T11:03:44;4.38;;;3.97;;
33206;SDS011;19565;46.602;11.534;2023-08-01T11:06:13;5.20;;;4.43;;
33206;SDS011;19565;46.602;11.534;2023-08-01T11:08:41;4.85;;;4.55;;
33206;SDS011;19565;46.602;11.534;2023-08-01T11:11:11;4.65;;;4.35;;
33206;SDS011;19565;46.602;11.534;2023-08-01T11:13:50;6.00;;;5.55;;
33206;SDS011;19565;46.602;11.534;2023-08-01T11:16:19;7.38;;;6.88;;
33206;SDS011;19565;46.602;11.534;2023-08-01T11:18:47;8.05;;;7.47;;
33206;SDS011;19565;46.602;11.534;2023-08-01T11:21:24;6.50;;;6.10;;
33206;SDS011;19565;46.602;11.534;2023-08-01T11:23:53;6.90;;;6.40;;
33206;SDS011;19565;46.602;11.534;2023-08-01T11:26:21;7.10;;;6.63;;
33206;SDS011;19565;46.602;11.534;2023-08-01T11:28:51;6.80;;;6.32;;
33206;SDS011;19565;46.602;11.534;2023-08-01T11:31:19;5.60;;;5.20;;
33206;SDS011;19565;46.602;11.534;2023-08-01T11:33:54;8.40;;;7.72;;
33206;SDS011;19565;46.602;11.534;2023-08-01T11:36:24;4.72;;;4.32;;
33206;SDS011;19565;46.602;11.534;2023-08-01T11:38:53;5.47;;;4.97;;
33206;SDS011;19565;46.602;11.534;2023-08-01T11:41:23;4.75;;;4.35;;
33206;SDS011;19565;46.602;11.534;2023-08-01T11:43:53;4.63;;;4.30;;
33206;SDS011;19565;46.602;11.534;2023-08-01T11:46:22;5.50;;;5.05;;
33206;SDS011;19565;46.602;11.534;2023-08-01T11:48:58;6.18;;;5.50;;
33206;SDS011;19565;46.602;11.534;2023-08-01T11:51:27;7.57;;;6.47;;
33206;SDS011;19565;46.602;11.534;2023-08-01T11:53:59;7.35;;;6.70;;
33206;SDS011;19565;46.602;11.534;2023-08-01T11:56:28;7.18;;;6.57;;
33206;SDS011;19565;46.602;11.534;2023-08-01T11:58:57;6.38;;;5.85;;
33206;SDS011;19565;46.602;11.534;2023-08-01T12:01:26;6.43;;;5.97;;
33206;SDS011;19565;46.602;11.534;2023-08-01T12:03:55;6.43;;;5.93;;
33206;SDS011;19565;46.602;11.534;2023-08-01T12:06:25;7.13;;;6.47;;
33206;SDS011;19565;46.602;11.534;2023-08-01T12:08:53;6.80;;;6.10;;
33206;SDS011;19565;46.602;11.534;2023-08-01T12:11:21;5.15;;;4.75;;
33206;SDS011;19565;46.602;11.534;2023-08-01T12:14:01;5.35;;;4.95;;
33206;SDS011;19565;46.602;11.534;2023-08-01T12:16:30;5.78;;;5.30;;
33206;SDS011;19565;46.602;11.534;2023-08-01T12:18:59;5.32;;;4.90;;
33206;SDS011;19565;46.602;11.534;2023-08-01T12:21:27;4.50;;;3.95;;
33206;SDS011;19565;46.602;11.534;2023-08-01T12:23:55;4.28;;;3.97;;
33206;SDS011;19565;46.602;11.534;2023-08-01T12:26:23;4.82;;;4.43;;
33206;SDS011;19565;46.602;11.534;2023-08-01T12:28:51;5.15;;;4.68;;
33206;SDS011;19565;46.602;11.534;2023-08-01T12:31:21;6.18;;;5.57;;
33206;SDS011;19565;46.602;11.534;2023-08-01T12:33:50;7.78;;;5.13;;
33206;SDS011;19565;46.602;11.534;2023-08-01T12:36:19;3.85;;;3.58;;
33206;SDS011;19565;46.602;11.534;2023-08-01T12:38:48;6.38;;;3.85;;
33206;SDS011;19565;46.602;11.534;2023-08-01T12:41:16;5.65;;;5.10;;
33206;SDS011;19565;46.602;11.534;2023-08-01T12:43:44;4.18;;;3.80;;
33206;SDS011;19565;46.602;11.534;2023-08-01T12:46:12;5.20;;;4.13;;
33206;SDS011;19565;46.602;11.534;2023-08-01T12:48:42;2.85;;;2.60;;
33206;SDS011;19565;46.602;11.534;2023-08-01T12:51:11;3.95;;;2.90;;
33206;SDS011;19565;46.602;11.534;2023-08-01T12:53:40;4.10;;;3.13;;
33206;SDS011;19565;46.602;11.534;2023-08-01T12:56:09;3.63;;;1.95;;
33206;SDS011;19565;46.602;11.534;2023-08-01T12:58:37;2.92;;;2.67;;
33206;SDS011;19565;46.602;11.534;2023-08-01T13:01:05;1.98;;;1.45;;
33206;SDS011;19565;46.602;11.534;2023-08-01T13:03:34;2.10;;;1.90;;
33206;SDS011;19565;46.602;11.534;2023-08-01T13:06:03;1.85;;;0.77;;
33206;SDS011;19565;46.602;11.534;2023-08-01T13:08:31;1.95;;;0.88;;
33206;SDS011;19565;46.602;11.534;2023-08-01T13:10:59;1.35;;;0.85;;
33206;SDS011;19565;46.602;11.534;2023-08-01T13:13:29;1.20;;;1.05;;
33206;SDS011;19565;46.602;11.534;2023-08-01T13:15:57;0.98;;;0.90;;
33206;SDS011;19565;46.602;11.534;2023-08-01T13:18:25;3.08;;;1.67;;
33206;SDS011;19565;46.602;11.534;2023-08-01T13:20:53;1.17;;;1.08;;
33206;SDS011;19565;46.602;11.534;2023-08-01T13:23:25;1.65;;;1.15;;
33206;SDS011;19565;46.602;11.534;2023-08-01T13:25:53;1.48;;;0.95;;
33206;SDS011;19565;46.602;11.534;2023-08-01T13:28:21;1.63;;;1.13;;
33206;SDS011;19565;46.602;11.534;2023-08-01T13:30:49;5.40;;;1.20;;
33206;SDS011;19565;46.602;11.534;2023-08-01T13:33:17;1.60;;;1.30;;
33206;SDS011;19565;46.602;11.534;2023-08-01T13:35:45;1.20;;;1.02;;
33206;SDS011;19565;46.602;11.534;2023-08-01T13:38:13;1.73;;;1.17;;
33206;SDS011;19565;46.602;11.534;2023-08-01T13:40:45;1.27;;;1.17;;
33206;SDS011;19565;46.602;11.534;2023-08-01T13:43:13;1.25;;;1.15;;
33206;SDS011;19565;46.602;11.534;2023-08-01T13:45:41;2.05;;;1.40;;
33206;SDS011;19565;46.602;11.534;2023-08-01T13:48:10;1.20;;;1.20;;
33206;SDS011;19565;46.602;11.534;2023-08-01T13:50:38;1.77;;;1.55;;
33206;SDS011;19565;46.602;11.534;2023-08-01T13:53:06;1.75;;;1.65;;
33206;SDS011;19565;46.602;11.534;2023-08-01T13:55:36;1.42;;;1.38;;
33206;SDS011;19565;46.602;11.534;2023-08-01T13:58:06;2.10;;;2.00;;
33206;SDS011;19565;46.602;11.534;2023-08-01T14:00:34;2.30;;;2.10;;
33206;SDS011;19565;46.602;11.534;2023-08-01T14:03:02;2.10;;;2.00;;
33206;SDS011;19565;46.602;11.534;2023-08-01T14:05:31;1.77;;;1.67;;
33206;SDS011;19565;46.602;11.534;2023-08-01T14:07:59;3.20;;;3.00;;
33206;SDS011;19565;46.602;11.534;2023-08-01T14:10:28;3.50;;;3.30;;
33206;SDS011;19565;46.602;11.534;2023-08-01T14:12:56;6.55;;;3.72;;
33206;SDS011;19565;46.602;11.534;2023-08-01T14:15:25;3.70;;;3.50;;
33206;SDS011;19565;46.602;11.534;2023-08-01T14:17:53;4.72;;;4.40;;
33206;SDS011;19565;46.602;11.534;2023-08-01T14:20:21;3.70;;;2.80;;
33206;SDS011;19565;46.602;11.534;2023-08-01T14:22:49;3.17;;;2.97;;
33206;SDS011;19565;46.602;11.534;2023-08-01T14:25:17;2.90;;;2.70;;
33206;SDS011;19565;46.602;11.534;2023-08-01T14:27:45;2.33;;;2.20;;
33206;SDS011;19565;46.602;11.534;2023-08-01T14:30:14;2.67;;;2.47;;
33206;SDS011;19565;46.602;11.534;2023-08-01T14:32:43;3.05;;;2.83;;
33206;SDS011;19565;46.602;11.534;2023-08-01T14:35:11;2.55;;;2.35;;
33206;SDS011;19565;46.602;11.534;2023-08-01T14:37:39;2.30;;;2.20;;
33206;SDS011;19565;46.602;11.534;2023-08-01T14:40:11;3.13;;;2.92;;
33206;SDS011;19565;46.602;11.534;2023-08-01T14:42:39;2.78;;;2.60;;